Time;durP1;ratioP1;P1;durP2;ratioP2;P2;SDS_P1;SDS_P2;PMS_P1;PMS_P2;Temp;Humidity;BMP_temperature;BMP_pressure;BME280_temperature;BME280_humidity;BME280_pressure;Samples;Min_cycle;Max_cycle;Signal;HPM_P1;HPM_P2
2024/01/23 00:00:16;;;;;;;20.80;3.22;;;;;;;;;;5007376;28;20034;-82
2024/01/23 00:02:42;;;;;;;19.73;3.25;;;;;;;;;;5000791;28;20022;-82
2024/01/23 00:05:08;;;;;;;19.50;3.40;;;;;;;;;;5001981;28;20038;-81
2024/01/23 00:07:34;;;;;;;22.25;3.63;;;;;;;;;;5010949;28;20490;-82
2024/01/23 00:10:03;;;;;;;30.40;3.85;;;;;;;;;;4989641;28;20026;-82
2024/01/23 00:12:29;;;;;;;15.88;3.28;;;;;;;;;;5004820;28;20133;-82
2024/01/23 00:14:57;;;;;;;27.10;4.13;;;;;;;;;;5007376;28;20029;-82
2024/01/23 00:23:30;;;;;;;26.58;4.72;;;;;;;;;;5005230;28;20039;-82
2024/01/23 00:25:56;;;;;;;23.63;3.10;;;;;;;;;;5008682;28;20026;-82
2024/01/23 00:28:23;;;;;;;31.30;3.88;;;;;;;;;;5012649;28;20041;-82
2024/01/23 00:30:49;;;;;;;22.02;4.00;;;;;;;;;;5003912;28;20512;-82
2024/01/23 00:33:15;;;;;;;31.50;4.95;;;;;;;;;;5006959;28;20035;-82
2024/01/23 00:35:41;;;;;;;20.83;3.33;;;;;;;;;;5004341;28;20116;-82
2024/01/23 00:38:07;;;;;;;23.05;3.63;;;;;;;;;;5000525;28;20069;-82
2024/01/23 00:40:34;;;;;;;28.83;3.90;;;;;;;;;;5004971;28;20030;-82
2024/01/23 00:43:00;;;;;;;19.77;4.15;;;;;;;;;;5000849;28;20030;-82
2024/01/23 00:45:26;;;;;;;31.38;4.07;;;;;;;;;;5010638;28;20034;-82
2024/01/23 00:47:52;;;;;;;25.45;3.47;;;;;;;;;;5007668;28;20504;-82
2024/01/23 00:50:18;;;;;;;28.92;4.35;;;;;;;;;;5007298;28;20033;-82
2024/01/23 00:52:44;;;;;;;31.10;4.50;;;;;;;;;;5017439;28;20076;-83
2024/01/23 00:55:10;;;;;;;28.90;4.18;;;;;;;;;;5004706;28;20030;-82
2024/01/23 00:57:36;;;;;;;21.98;3.38;;;;;;;;;;5003932;28;20286;-82
2024/01/23 01:00:07;;;;;;;32.72;4.28;;;;;;;;;;4996281;28;20345;-82
2024/01/23 01:02:34;;;;;;;36.22;4.63;;;;;;;;;;5006121;28;20045;-82
2024/01/23 01:05:00;;;;;;;24.52;4.32;;;;;;;;;;5011568;28;20091;-82
2024/01/23 01:07:26;;;;;;;31.55;4.10;;;;;;;;;;5017718;28;20030;-82
2024/01/23 01:09:52;;;;;;;23.50;4.40;;;;;;;;;;5014625;28;20158;-82
2024/01/23 01:12:18;;;;;;;33.20;4.38;;;;;;;;;;5003295;28;20049;-82
2024/01/23 01:14:44;;;;;;;34.95;3.97;;;;;;;;;;5008185;28;20072;-82
2024/01/23 01:17:10;;;;;;;28.30;4.90;;;;;;;;;;5013558;28;20088;-82
2024/01/23 01:19:36;;;;;;;28.02;3.95;;;;;;;;;;5009007;28;20084;-82
2024/01/23 01:22:02;;;;;;;27.88;4.43;;;;;;;;;;5025842;28;20418;-82
2024/01/23 01:24:29;;;;;;;26.77;3.78;;;;;;;;;;5010309;28;20125;-82
2024/01/23 01:26:55;;;;;;;27.60;3.88;;;;;;;;;;5009701;28;20034;-82
2024/01/23 01:29:21;;;;;;;33.42;4.18;;;;;;;;;;5007298;28;20356;-82
2024/01/23 01:31:47;;;;;;;27.95;6.03;;;;;;;;;;5010620;28;20052;-82
2024/01/23 01:34:13;;;;;;;26.27;4.00;;;;;;;;;;5011066;28;20117;-81
2024/01/23 01:36:39;;;;;;;21.88;3.55;;;;;;;;;;5010489;28;20046;-81
2024/01/23 01:39:06;;;;;;;20.42;4.15;;;;;;;;;;5007440;28;20026;-81
2024/01/23 01:41:33;;;;;;;27.90;4.25;;;;;;;;;;5009647;28;20026;-81
2024/01/23 01:43:59;;;;;;;20.95;4.35;;;;;;;;;;5010303;28;20474;-81
2024/01/23 01:46:26;;;;;;;32.53;4.55;;;;;;;;;;5011624;28;20356;-81
2024/01/23 01:48:53;;;;;;;30.35;3.72;;;;;;;;;;5009992;28;20029;-81
2024/01/23 01:51:26;;;;;;;30.85;4.30;;;;;;;;;;5008752;28;20503;-81
2024/01/23 01:53:52;;;;;;;32.17;4.85;;;;;;;;;;5008076;28;20073;-80
2024/01/23 01:56:19;;;;;;;30.63;5.05;;;;;;;;;;5004598;28;20514;-81
2024/01/23 01:58:46;;;;;;;30.98;5.53;;;;;;;;;;5008950;28;20092;-81
2024/01/23 02:01:13;;;;;;;33.85;5.30;;;;;;;;;;5016764;28;20029;-81
2024/01/23 02:03:39;;;;;;;28.52;5.45;;;;;;;;;;5000568;28;20098;-81
2024/01/23 02:06:06;;;;;;;34.45;4.35;;;;;;;;;;4999035;28;20504;-81
2024/01/23 02:08:33;;;;;;;29.73;5.13;;;;;;;;;;5010624;28;20068;-81
2024/01/23 02:10:59;;;;;;;31.05;5.05;;;;;;;;;;5008653;28;20022;-81
2024/01/23 02:13:26;;;;;;;32.78;5.18;;;;;;;;;;5006214;28;20656;-81
2024/01/23 02:15:52;;;;;;;35.45;3.67;;;;;;;;;;5005587;28;20122;-81
2024/01/23 02:18:18;;;;;;;24.33;4.43;;;;;;;;;;5008974;28;20030;-81
2024/01/23 02:20:44;;;;;;;28.38;4.05;;;;;;;;;;4994921;28;20131;-81
2024/01/23 02:23:13;;;;;;;29.85;5.38;;;;;;;;;;5009160;28;20026;-82
2024/01/23 02:25:40;;;;;;;27.30;4.50;;;;;;;;;;5009772;28;20082;-83
2024/01/23 02:28:07;;;;;;;28.27;5.55;;;;;;;;;;5004718;28;20053;-83
2024/01/23 02:30:34;;;;;;;40.65;5.07;;;;;;;;;;5011413;28;20023;-82
2024/01/23 02:33:01;;;;;;;39.40;4.95;;;;;;;;;;5015984;28;20468;-82
2024/01/23 02:35:27;;;;;;;28.92;5.15;;;;;;;;;;5006339;28;20061;-82
2024/01/23 02:37:54;;;;;;;34.08;4.97;;;;;;;;;;5009762;28;20113;-82
2024/01/23 02:40:21;;;;;;;32.72;4.78;;;;;;;;;;5005996;28;20072;-82
2024/01/23 02:42:47;;;;;;;36.20;5.28;;;;;;;;;;5007038;28;20045;-82
2024/01/23 02:45:13;;;;;;;36.00;4.68;;;;;;;;;;5011434;28;20105;-82
2024/01/23 02:47:39;;;;;;;38.90;7.47;;;;;;;;;;5019184;28;20034;-82
2024/01/23 02:50:05;;;;;;;35.92;5.32;;;;;;;;;;5008513;28;20026;-82
2024/01/23 02:52:31;;;;;;;35.70;4.95;;;;;;;;;;5007512;28;20109;-81
2024/01/23 02:54:58;;;;;;;29.40;5.57;;;;;;;;;;5007527;28;20049;-82
2024/01/23 02:57:25;;;;;;;35.08;5.05;;;;;;;;;;5001438;28;20078;-82
2024/01/23 02:59:52;;;;;;;27.95;4.88;;;;;;;;;;5004123;28;20026;-82
2024/01/23 03:02:18;;;;;;;38.65;5.97;;;;;;;;;;5024019;28;20680;-82
2024/01/23 03:04:45;;;;;;;32.95;6.28;;;;;;;;;;5008629;28;20033;-82
2024/01/23 03:07:12;;;;;;;35.63;6.45;;;;;;;;;;5008388;28;20434;-81
2024/01/23 03:09:38;;;;;;;25.50;4.38;;;;;;;;;;5004898;28;20483;-82
2024/01/23 03:12:14;;;;;;;31.65;4.72;;;;;;;;;;5008696;28;20543;-82
2024/01/23 03:14:40;;;;;;;33.08;4.40;;;;;;;;;;5008165;28;20026;-82
2024/01/23 03:17:06;;;;;;;38.20;5.22;;;;;;;;;;5007992;28;20030;-82
2024/01/23 03:19:32;;;;;;;26.10;4.68;;;;;;;;;;5008848;28;20026;-81
2024/01/23 03:21:58;;;;;;;40.35;6.40;;;;;;;;;;5008572;28;20022;-81
2024/01/23 03:24:24;;;;;;;49.17;6.50;;;;;;;;;;5007771;28;20059;-82
2024/01/23 03:26:50;;;;;;;35.60;5.20;;;;;;;;;;5006655;28;20514;-82
2024/01/23 03:29:16;;;;;;;36.03;5.28;;;;;;;;;;5009220;28;20030;-82
2024/01/23 03:31:43;;;;;;;36.22;5.05;;;;;;;;;;5004617;28;20514;-82
2024/01/23 03:34:09;;;;;;;38.95;5.72;;;;;;;;;;5006957;28;20403;-82
2024/01/23 03:36:35;;;;;;;32.45;5.18;;;;;;;;;;5008604;28;20402;-81
2024/01/23 03:39:01;;;;;;;33.70;5.38;;;;;;;;;;5005467;28;20375;-81
2024/01/23 03:41:27;;;;;;;31.17;6.75;;;;;;;;;;5006015;28;20391;-82
2024/01/23 03:43:53;;;;;;;31.73;5.03;;;;;;;;;;5007546;28;20033;-80
2024/01/23 03:46:19;;;;;;;44.50;6.13;;;;;;;;;;5013127;28;20026;-78
2024/01/23 03:48:45;;;;;;;35.72;6.03;;;;;;;;;;5004292;28;20038;-83
2024/01/23 03:51:11;;;;;;;30.90;4.50;;;;;;;;;;5009269;28;20041;-82
2024/01/23 03:53:37;;;;;;;47.42;6.88;;;;;;;;;;5007018;28;20033;-82
2024/01/23 03:56:03;;;;;;;29.73;5.15;;;;;;;;;;5006014;28;20034;-82
2024/01/23 03:58:29;;;;;;;41.60;5.78;;;;;;;;;;5007948;28;20422;-81
2024/01/23 04:00:59;;;;;;;36.80;5.88;;;;;;;;;;5008481;28;20502;-80
2024/01/23 04:03:25;;;;;;;37.25;6.70;;;;;;;;;;4997877;28;20101;-81
2024/01/23 04:05:51;;;;;;;37.47;7.15;;;;;;;;;;5003713;28;20134;-82
2024/01/23 04:08:18;;;;;;;46.58;7.40;;;;;;;;;;5007383;28;20038;-81
2024/01/23 04:10:44;;;;;;;37.25;5.78;;;;;;;;;;5002853;28;20038;-82
2024/01/23 04:13:10;;;;;;;32.47;5.43;;;;;;;;;;5005196;28;20042;-82
2024/01/23 04:15:36;;;;;;;39.75;5.55;;;;;;;;;;5004743;28;20125;-82
2024/01/23 04:18:02;;;;;;;37.17;4.90;;;;;;;;;;5004161;28;20153;-82
2024/01/23 04:20:28;;;;;;;25.10;3.85;;;;;;;;;;5008120;28;20030;-82
2024/01/23 04:22:55;;;;;;;32.80;5.65;;;;;;;;;;5004992;28;20365;-81
2024/01/23 04:25:21;;;;;;;33.38;6.05;;;;;;;;;;5005229;28;20129;-82
2024/01/23 04:27:47;;;;;;;37.80;7.43;;;;;;;;;;4999539;28;20026;-81
2024/01/23 04:30:13;;;;;;;32.75;5.15;;;;;;;;;;5005704;28;20038;-81
2024/01/23 04:32:41;;;;;;;40.85;5.97;;;;;;;;;;5000125;28;20031;-80
2024/01/23 04:35:07;;;;;;;42.63;6.30;;;;;;;;;;5006460;28;20030;-81
2024/01/23 04:37:33;;;;;;;38.72;6.90;;;;;;;;;;5013018;28;20041;-82
2024/01/23 04:40:00;;;;;;;45.20;5.75;;;;;;;;;;5012415;28;20040;-80
2024/01/23 04:42:26;;;;;;;45.00;7.70;;;;;;;;;;5008942;28;20033;-81
2024/01/23 04:44:52;;;;;;;43.20;5.82;;;;;;;;;;5007373;28;20022;-79
2024/01/23 04:47:18;;;;;;;40.85;7.05;;;;;;;;;;5008564;28;20030;-80
2024/01/23 04:49:44;;;;;;;43.95;7.20;;;;;;;;;;5011780;28;20459;-81
2024/01/23 04:52:11;;;;;;;41.40;5.78;;;;;;;;;;5009767;28;20044;-81
2024/01/23 04:54:37;;;;;;;32.53;5.22;;;;;;;;;;5010507;28;20061;-81
2024/01/23 04:57:03;;;;;;;45.03;6.55;;;;;;;;;;5010963;28;20037;-80
2024/01/23 04:59:29;;;;;;;30.52;5.85;;;;;;;;;;5011693;28;20443;-81
2024/01/23 05:01:55;;;;;;;37.78;5.63;;;;;;;;;;5016803;28;20034;-79
2024/01/23 05:04:22;;;;;;;35.60;6.07;;;;;;;;;;5001622;28;20034;-80
2024/01/23 05:06:48;;;;;;;42.50;6.28;;;;;;;;;;5004705;28;20026;-80
2024/01/23 05:09:14;;;;;;;32.55;6.45;;;;;;;;;;5009795;28;20046;-80
2024/01/23 05:11:40;;;;;;;33.45;6.40;;;;;;;;;;5005458;28;20044;-80
2024/01/23 05:14:06;;;;;;;35.80;5.82;;;;;;;;;;5006216;28;20113;-80
2024/01/23 05:16:32;;;;;;;30.15;5.07;;;;;;;;;;5006532;28;20038;-80
2024/01/23 05:18:59;;;;;;;45.72;8.43;;;;;;;;;;5009968;28;20034;-80
2024/01/23 05:21:25;;;;;;;41.63;6.35;;;;;;;;;;5011494;28;20061;-80
2024/01/23 05:23:51;;;;;;;41.65;7.10;;;;;;;;;;5008504;28;20054;-79
2024/01/23 05:26:17;;;;;;;28.35;6.07;;;;;;;;;;5011022;28;20030;-79
2024/01/23 05:28:43;;;;;;;36.63;7.38;;;;;;;;;;5007686;28;20026;-79
2024/01/23 05:31:09;;;;;;;50.83;7.53;;;;;;;;;;5001676;28;20033;-79
2024/01/23 05:33:35;;;;;;;32.50;5.43;;;;;;;;;;5007294;28;20383;-79
2024/01/23 05:36:01;;;;;;;35.60;5.97;;;;;;;;;;5004215;28;20041;-79
2024/01/23 05:38:27;;;;;;;43.88;7.68;;;;;;;;;;5002423;28;20038;-80
2024/01/23 05:40:53;;;;;;;36.22;5.97;;;;;;;;;;5011687;28;20152;-80
2024/01/23 05:43:20;;;;;;;43.60;6.22;;;;;;;;;;5009441;28;20038;-80
2024/01/23 05:45:46;;;;;;;44.85;7.03;;;;;;;;;;5001188;28;20435;-79
2024/01/23 05:48:12;;;;;;;45.10;6.55;;;;;;;;;;5005518;28;20456;-80
2024/01/23 05:50:38;;;;;;;43.67;6.30;;;;;;;;;;5008743;28;20387;-80
2024/01/23 05:53:04;;;;;;;44.90;6.78;;;;;;;;;;5011148;28;20052;-79
2024/01/23 05:55:30;;;;;;;44.38;7.03;;;;;;;;;;5002090;28;20460;-80
2024/01/23 05:57:56;;;;;;;38.10;6.07;;;;;;;;;;5006177;28;20034;-79
2024/01/23 06:00:22;;;;;;;40.35;6.32;;;;;;;;;;5009686;28;20577;-79
2024/01/23 06:02:49;;;;;;;40.63;7.35;;;;;;;;;;4996782;28;20057;-80
2024/01/23 06:05:15;;;;;;;36.75;5.43;;;;;;;;;;5007988;28;20022;-80
2024/01/23 06:07:43;;;;;;;47.92;7.88;;;;;;;;;;4996046;28;20031;-80
2024/01/23 06:10:09;;;;;;;44.72;8.50;;;;;;;;;;5008609;28;20143;-80
2024/01/23 06:12:36;;;;;;;43.42;5.47;;;;;;;;;;4999812;28;20585;-79
2024/01/23 06:15:02;;;;;;;44.63;6.60;;;;;;;;;;5007213;28;20026;-79
2024/01/23 06:17:29;;;;;;;54.80;8.45;;;;;;;;;;5006905;28;20038;-79
2024/01/23 06:19:55;;;;;;;53.83;6.30;;;;;;;;;;5007172;28;20057;-80
2024/01/23 06:22:21;;;;;;;45.03;7.18;;;;;;;;;;5005156;28;20040;-79
2024/01/23 06:25:07;;;;;;;40.83;6.55;;;;;;;;;;5000774;28;20392;-79
2024/01/23 06:27:33;;;;;;;43.67;7.10;;;;;;;;;;5003960;28;20117;-79
2024/01/23 06:29:59;;;;;;;60.35;6.88;;;;;;;;;;5008898;28;20410;-80
2024/01/23 06:32:25;;;;;;;52.00;9.25;;;;;;;;;;5015598;28;20030;-80
2024/01/23 06:34:52;;;;;;;44.92;8.00;;;;;;;;;;5012596;28;20017;-80
2024/01/23 06:37:19;;;;;;;38.05;6.25;;;;;;;;;;5009369;28;20049;-80
2024/01/23 06:39:45;;;;;;;48.05;7.43;;;;;;;;;;5000736;28;20429;-80
2024/01/23 06:42:11;;;;;;;41.63;5.95;;;;;;;;;;5008346;28;20026;-80
2024/01/23 06:44:39;;;;;;;39.38;6.45;;;;;;;;;;5009004;28;20026;-80
2024/01/23 06:47:05;;;;;;;50.95;6.88;;;;;;;;;;5011207;28;20037;-80
2024/01/23 06:49:31;;;;;;;47.10;6.78;;;;;;;;;;5009205;28;20033;-80
2024/01/23 06:51:57;;;;;;;39.58;6.82;;;;;;;;;;4997744;28;20384;-79
2024/01/23 06:54:23;;;;;;;65.60;10.98;;;;;;;;;;4992445;28;20121;-80
2024/01/23 06:56:49;;;;;;;54.50;10.13;;;;;;;;;;5004327;28;20121;-80
2024/01/23 06:59:18;;;;;;;67.63;15.00;;;;;;;;;;4994901;28;20053;-78
2024/01/23 07:01:44;;;;;;;66.63;11.63;;;;;;;;;;5005052;28;20034;-80
2024/01/23 07:04:10;;;;;;;50.10;7.53;;;;;;;;;;5008603;28;20034;-81
2024/01/23 07:06:36;;;;;;;49.55;7.05;;;;;;;;;;5009290;28;22371;-80
2024/01/23 07:09:04;;;;;;;52.28;6.97;;;;;;;;;;5008671;28;20022;-80
2024/01/23 07:11:30;;;;;;;41.60;5.82;;;;;;;;;;5009381;28;20491;-80
2024/01/23 07:13:56;;;;;;;55.53;6.75;;;;;;;;;;5009469;28;20033;-80
2024/01/23 07:16:22;;;;;;;54.65;7.43;;;;;;;;;;5015172;28;20043;-80
2024/01/23 07:18:48;;;;;;;56.47;8.10;;;;;;;;;;5006774;28;20034;-80
2024/01/23 07:21:15;;;;;;;42.45;7.30;;;;;;;;;;5008546;28;20045;-80
2024/01/23 07:23:41;;;;;;;53.50;6.28;;;;;;;;;;5007461;28;20036;-81
2024/01/23 07:26:07;;;;;;;47.85;7.03;;;;;;;;;;5008292;28;20033;-80
2024/01/23 07:28:33;;;;;;;51.85;8.25;;;;;;;;;;5003683;28;20037;-80
2024/01/23 07:30:59;;;;;;;43.85;8.60;;;;;;;;;;5001080;28;20037;-81
2024/01/23 07:33:25;;;;;;;65.07;9.73;;;;;;;;;;5013094;28;20105;-80
2024/01/23 07:35:51;;;;;;;55.47;6.63;;;;;;;;;;5005311;28;20871;-80
2024/01/23 07:38:18;;;;;;;53.47;6.63;;;;;;;;;;5005481;28;20057;-80
2024/01/23 07:40:44;;;;;;;39.90;6.20;;;;;;;;;;5004176;28;20108;-81
2024/01/23 07:43:11;;;;;;;46.80;8.25;;;;;;;;;;5008051;28;20103;-80
2024/01/23 07:45:37;;;;;;;44.85;7.20;;;;;;;;;;5012500;28;20014;-80
2024/01/23 07:48:03;;;;;;;56.78;8.07;;;;;;;;;;5016685;28;20385;-80
2024/01/23 07:50:29;;;;;;;45.50;7.80;;;;;;;;;;5005467;28;20196;-80
2024/01/23 07:52:55;;;;;;;48.47;6.10;;;;;;;;;;5009501;28;20295;-80
2024/01/23 07:55:22;;;;;;;58.30;7.40;;;;;;;;;;4995050;28;20559;-80
2024/01/23 07:57:49;;;;;;;50.50;7.78;;;;;;;;;;5008282;28;20084;-80
2024/01/23 08:00:18;;;;;;;47.00;7.05;;;;;;;;;;5005790;28;20077;-80
2024/01/23 08:02:44;;;;;;;51.92;7.60;;;;;;;;;;5002696;28;20034;-80
2024/01/23 08:05:10;;;;;;;53.63;6.75;;;;;;;;;;5004668;28;20399;-81
2024/01/23 08:07:37;;;;;;;40.22;7.20;;;;;;;;;;5008789;28;20048;-80
2024/01/23 08:10:03;;;;;;;48.70;6.32;;;;;;;;;;5005280;28;20033;-80
2024/01/23 08:12:29;;;;;;;47.22;7.25;;;;;;;;;;5000875;28;20073;-80
2024/01/23 08:14:55;;;;;;;54.13;8.13;;;;;;;;;;5007939;28;20088;-79
2024/01/23 08:17:21;;;;;;;48.17;8.20;;;;;;;;;;4996219;28;20042;-79
2024/01/23 08:19:47;;;;;;;45.33;11.90;;;;;;;;;;4998539;28;20117;-81
2024/01/23 08:22:13;;;;;;;51.17;7.68;;;;;;;;;;5006918;28;20034;-81
2024/01/23 08:24:40;;;;;;;35.15;6.40;;;;;;;;;;5005508;28;20063;-81
2024/01/23 08:27:06;;;;;;;63.88;7.40;;;;;;;;;;5003658;28;20450;-81
2024/01/23 08:29:32;;;;;;;54.92;6.68;;;;;;;;;;5007078;28;20038;-79
2024/01/23 08:31:58;;;;;;;62.40;10.55;;;;;;;;;;5007718;28;20038;-78
2024/01/23 08:34:24;;;;;;;49.97;8.07;;;;;;;;;;5004896;28;20030;-79
2024/01/23 08:36:51;;;;;;;50.30;6.85;;;;;;;;;;4997868;28;20041;-80
2024/01/23 08:39:17;;;;;;;59.25;7.63;;;;;;;;;;4999010;28;20026;-81
2024/01/23 08:41:43;;;;;;;42.42;9.35;;;;;;;;;;5002192;28;20140;-81
2024/01/23 08:44:09;;;;;;;51.85;14.73;;;;;;;;;;5006819;28;20030;-82
2024/01/23 08:46:35;;;;;;;47.67;7.32;;;;;;;;;;4997086;28;20097;-78
2024/01/23 08:49:03;;;;;;;43.90;6.57;;;;;;;;;;5004619;28;20429;-83
2024/01/23 08:51:29;;;;;;;50.40;6.05;;;;;;;;;;4998200;28;20030;-83
2024/01/23 08:53:55;;;;;;;50.25;6.70;;;;;;;;;;5007870;28;20378;-82
2024/01/23 08:56:23;;;;;;;46.38;6.43;;;;;;;;;;5006871;28;20041;-85
2024/01/23 08:58:49;;;;;;;54.60;6.95;;;;;;;;;;5005183;28;20038;-84
2024/01/23 09:01:16;;;;;;;42.72;7.43;;;;;;;;;;5006955;28;20060;-83
2024/01/23 09:03:42;;;;;;;57.72;7.97;;;;;;;;;;4999790;28;20114;-83
2024/01/23 09:06:09;;;;;;;38.95;6.80;;;;;;;;;;5003852;28;20076;-83
2024/01/23 09:08:35;;;;;;;39.70;6.82;;;;;;;;;;5003627;28;20041;-81
2024/01/23 09:11:02;;;;;;;33.92;6.28;;;;;;;;;;5005216;28;20430;-80
2024/01/23 09:13:31;;;;;;;45.08;6.47;;;;;;;;;;5008566;28;20030;-80
2024/01/23 09:15:59;;;;;;;50.80;6.47;;;;;;;;;;5010309;28;20173;-81
2024/01/23 09:18:25;;;;;;;50.90;6.97;;;;;;;;;;5001394;28;20080;-80
2024/01/23 09:20:53;;;;;;;49.10;7.18;;;;;;;;;;5010650;28;20401;-78
2024/01/23 09:23:19;;;;;;;55.33;15.48;;;;;;;;;;5014486;28;20742;-79
2024/01/23 09:25:45;;;;;;;62.72;10.30;;;;;;;;;;5005490;28;20033;-83
2024/01/23 09:28:11;;;;;;;55.97;8.55;;;;;;;;;;5011723;28;20033;-81
2024/01/23 09:30:37;;;;;;;43.50;6.57;;;;;;;;;;5004248;28;20077;-83
2024/01/23 09:33:03;;;;;;;54.40;7.68;;;;;;;;;;5016712;28;20025;-81
2024/01/23 09:35:30;;;;;;;44.05;7.45;;;;;;;;;;5022307;28;20489;-83
2024/01/23 09:37:56;;;;;;;60.40;8.88;;;;;;;;;;5008693;28;20029;-83
2024/01/23 09:40:22;;;;;;;45.55;6.85;;;;;;;;;;5001804;28;20038;-81
2024/01/23 09:42:49;;;;;;;37.22;7.78;;;;;;;;;;5014274;28;20030;-83
2024/01/23 09:45:19;;;;;;;45.40;6.68;;;;;;;;;;5004117;28;20073;-82
2024/01/23 09:47:49;;;;;;;39.30;6.95;;;;;;;;;;5007764;28;20061;-84
2024/01/23 09:50:16;;;;;;;38.65;6.35;;;;;;;;;;5005044;28;20030;-83
2024/01/23 09:52:43;;;;;;;41.22;7.20;;;;;;;;;;5017813;28;20032;-82
2024/01/23 09:55:09;;;;;;;43.85;6.88;;;;;;;;;;5008249;28;20038;-83
2024/01/23 09:57:36;;;;;;;43.00;8.38;;;;;;;;;;5002799;28;20053;-84
2024/01/23 10:00:06;;;;;;;51.25;7.88;;;;;;;;;;5008619;28;20490;-84
2024/01/23 10:02:32;;;;;;;56.30;7.93;;;;;;;;;;5020094;28;20053;-84
2024/01/23 10:04:58;;;;;;;50.22;6.75;;;;;;;;;;5018417;28;20646;-84
2024/01/23 10:07:26;;;;;;;54.75;7.63;;;;;;;;;;5007517;28;20041;-84
2024/01/23 10:10:04;;;;;;;55.90;7.47;;;;;;;;;;5011148;28;20045;-86
2024/01/23 10:12:32;;;;;;;41.28;6.78;;;;;;;;;;5006574;28;20050;-84
2024/01/23 10:14:59;;;;;;;49.03;10.73;;;;;;;;;;5009641;28;20022;-84
2024/01/23 10:17:25;;;;;;;32.83;6.85;;;;;;;;;;5013302;28;20045;-86
2024/01/23 10:19:52;;;;;;;45.92;7.90;;;;;;;;;;5010180;28;20475;-84
2024/01/23 10:22:18;;;;;;;42.97;7.20;;;;;;;;;;5010552;28;20088;-83
2024/01/23 10:24:44;;;;;;;46.47;6.60;;;;;;;;;;5010106;28;20046;-82
2024/01/23 10:27:10;;;;;;;34.72;6.15;;;;;;;;;;5007907;28;20649;-84
2024/01/23 10:29:36;;;;;;;39.20;7.03;;;;;;;;;;5006153;28;20034;-82
2024/01/23 10:32:03;;;;;;;44.42;9.35;;;;;;;;;;5022813;28;20048;-82
2024/01/23 10:34:30;;;;;;;41.63;7.05;;;;;;;;;;5026963;28;20021;-83
2024/01/23 10:36:58;;;;;;;42.03;6.15;;;;;;;;;;4993581;28;20039;-83
2024/01/23 10:39:29;;;;;;;35.03;6.35;;;;;;;;;;4992344;28;20037;-83
2024/01/23 10:41:56;;;;;;;30.75;5.90;;;;;;;;;;4997983;28;20037;-83
2024/01/23 10:44:23;;;;;;;39.10;6.47;;;;;;;;;;4999770;28;20717;-83
2024/01/23 10:46:50;;;;;;;35.85;6.50;;;;;;;;;;4995808;28;20398;-82
2024/01/23 10:49:16;;;;;;;45.22;8.00;;;;;;;;;;5001333;28;20018;-83
2024/01/23 10:51:46;;;;;;;32.45;6.20;;;;;;;;;;5005912;28;20022;-83
2024/01/23 10:54:27;;;;;;;34.63;6.57;;;;;;;;;;4995124;28;20029;-84
2024/01/23 10:56:56;;;;;;;37.67;5.43;;;;;;;;;;4999263;28;20759;-84
2024/01/23 10:59:26;;;;;;;37.22;6.10;;;;;;;;;;5001218;28;20080;-83
2024/01/23 11:02:06;;;;;;;50.80;7.53;;;;;;;;;;5009824;28;20368;-84
2024/01/23 11:04:32;;;;;;;43.72;6.15;;;;;;;;;;4998804;28;20036;-83
2024/01/23 11:07:00;;;;;;;36.42;5.65;;;;;;;;;;5003564;28;20069;-83
2024/01/23 11:09:29;;;;;;;41.03;6.47;;;;;;;;;;4997718;28;20041;-81
2024/01/23 11:11:55;;;;;;;40.28;8.52;;;;;;;;;;4997141;28;20066;-82
2024/01/23 11:14:26;;;;;;;47.30;11.25;;;;;;;;;;4999309;28;20041;-80
2024/01/23 11:17:03;;;;;;;36.30;7.35;;;;;;;;;;4997960;28;20117;-80
2024/01/23 11:19:29;;;;;;;33.50;6.65;;;;;;;;;;4994782;28;20046;-83
2024/01/23 11:22:04;;;;;;;35.10;5.45;;;;;;;;;;4998450;28;20048;-81
2024/01/23 11:24:43;;;;;;;38.38;6.00;;;;;;;;;;4996244;28;20092;-82
2024/01/23 11:27:18;;;;;;;30.73;4.88;;;;;;;;;;4994919;28;20048;-83
2024/01/23 11:29:45;;;;;;;38.70;7.15;;;;;;;;;;5002683;28;20139;-81
2024/01/23 11:32:23;;;;;;;32.72;5.50;;;;;;;;;;5004001;28;20029;-80
2024/01/23 11:35:02;;;;;;;33.53;5.97;;;;;;;;;;4998225;28;20490;-82
2024/01/23 11:37:45;;;;;;;47.00;8.32;;;;;;;;;;4996282;28;20034;-82
2024/01/23 11:40:11;;;;;;;;;;;;;;;;;;4999256;28;20249;-81
2024/01/23 11:42:37;;;;;;;49.15;7.47;;;;;;;;;;4994704;28;19941;-78
2024/01/23 11:45:22;;;;;;;42.30;7.47;;;;;;;;;;4998921;28;20021;-83
2024/01/23 11:47:58;;;;;;;38.10;6.53;;;;;;;;;;4997182;28;20121;-81
2024/01/23 11:50:26;;;;;;;39.60;6.03;;;;;;;;;;4998299;28;20042;-80
2024/01/23 11:52:53;;;;;;;32.65;5.30;;;;;;;;;;4997184;28;20018;-81
2024/01/23 11:55:20;;;;;;;40.35;7.80;;;;;;;;;;4997499;28;20028;-81
2024/01/23 11:57:49;;;;;;;43.83;7.05;;;;;;;;;;5005999;28;20048;-80
2024/01/23 12:00:16;;;;;;;36.30;5.63;;;;;;;;;;5000375;28;20480;-80
2024/01/23 12:02:43;;;;;;;42.85;7.57;;;;;;;;;;4997594;28;20112;-81
2024/01/23 12:05:09;;;;;;;38.88;8.15;;;;;;;;;;4993131;28;20091;-82
2024/01/23 12:07:37;;;;;;;45.20;6.80;;;;;;;;;;5001025;28;20041;-81
2024/01/23 12:10:12;;;;;;;47.28;8.07;;;;;;;;;;4996911;28;20471;-82
2024/01/23 12:12:39;;;;;;;43.35;5.47;;;;;;;;;;4998715;28;20076;-83
2024/01/23 12:15:06;;;;;;;36.67;7.05;;;;;;;;;;5001640;28;20183;-84
2024/01/23 12:17:35;;;;;;;44.15;9.43;;;;;;;;;;5003770;28;20081;-79
2024/01/23 12:20:09;;;;;;;43.20;6.82;;;;;;;;;;5007068;28;20538;-81
2024/01/23 12:22:38;;;;;;;46.05;6.43;;;;;;;;;;5003592;28;20029;-83
2024/01/23 12:25:05;;;;;;;36.30;5.45;;;;;;;;;;5001094;28;20036;-81
2024/01/23 12:27:31;;;;;;;31.45;5.95;;;;;;;;;;5005151;28;20030;-82
2024/01/23 12:29:58;;;;;;;34.58;6.07;;;;;;;;;;5006991;28;20436;-84
2024/01/23 12:32:28;;;;;;;37.67;6.10;;;;;;;;;;5019127;28;20022;-83
2024/01/23 12:34:54;;;;;;;37.10;4.85;;;;;;;;;;5006741;28;20411;-84
2024/01/23 12:37:23;;;;;;;40.53;6.50;;;;;;;;;;5006638;28;20033;-83
2024/01/23 12:39:49;;;;;;;34.05;6.32;;;;;;;;;;5008645;28;20467;-83
2024/01/23 12:42:15;;;;;;;41.65;7.10;;;;;;;;;;5007587;28;20367;-83
2024/01/23 12:44:42;;;;;;;38.40;6.22;;;;;;;;;;5006645;28;20379;-85
2024/01/23 12:47:08;;;;;;;37.58;6.18;;;;;;;;;;5003995;28;20052;-85
2024/01/23 12:49:37;;;;;;;33.88;5.32;;;;;;;;;;5007123;28;20025;-85
2024/01/23 12:52:04;;;;;;;37.95;6.50;;;;;;;;;;5007950;28;20029;-85
2024/01/23 12:54:30;;;;;;;41.97;5.80;;;;;;;;;;5009601;28;20042;-84
2024/01/23 12:56:56;;;;;;;39.45;5.85;;;;;;;;;;5012506;28;20034;-84
2024/01/23 12:59:23;;;;;;;30.92;5.72;;;;;;;;;;5009653;28;20029;-85
2024/01/23 13:01:49;;;;;;;31.10;5.65;;;;;;;;;;5017961;28;20052;-84
2024/01/23 13:04:17;;;;;;;31.73;6.43;;;;;;;;;;5011008;28;20054;-85
2024/01/23 13:06:43;;;;;;;36.38;6.03;;;;;;;;;;4993557;28;20066;-85
2024/01/23 13:09:09;;;;;;;36.88;5.40;;;;;;;;;;5007381;28;20088;-85
2024/01/23 13:11:35;;;;;;;32.53;5.57;;;;;;;;;;5005521;28;20395;-83
2024/01/23 13:14:01;;;;;;;46.42;7.00;;;;;;;;;;5011576;28;20022;-83
2024/01/23 13:16:27;;;;;;;40.13;6.15;;;;;;;;;;5023606;28;20037;-83
2024/01/23 13:18:53;;;;;;;45.97;6.30;;;;;;;;;;5023908;28;20026;-83
2024/01/23 13:21:20;;;;;;;46.83;6.35;;;;;;;;;;5011199;28;20086;-83
2024/01/23 13:23:46;;;;;;;35.60;6.30;;;;;;;;;;5011475;28;20498;-83
2024/01/23 13:26:13;;;;;;;41.05;6.45;;;;;;;;;;5011758;28;20037;-83
2024/01/23 13:28:39;;;;;;;48.42;7.13;;;;;;;;;;5003666;28;20038;-84
2024/01/23 13:31:05;;;;;;;38.90;7.20;;;;;;;;;;5012404;28;20061;-83
2024/01/23 13:33:32;;;;;;;46.88;7.70;;;;;;;;;;5012056;28;20025;-82
2024/01/23 13:35:58;;;;;;;34.92;5.43;;;;;;;;;;5009999;28;20112;-83
2024/01/23 13:38:24;;;;;;;42.25;6.53;;;;;;;;;;5007641;28;20038;-84
2024/01/23 13:40:50;;;;;;;39.97;5.05;;;;;;;;;;5009447;28;20038;-84
2024/01/23 13:43:16;;;;;;;28.15;4.80;;;;;;;;;;5011322;28;20029;-84
2024/01/23 13:45:42;;;;;;;40.15;6.25;;;;;;;;;;5012722;28;20026;-85
2024/01/23 13:48:08;;;;;;;31.67;4.57;;;;;;;;;;5012103;28;20029;-84
2024/01/23 13:50:35;;;;;;;36.08;6.18;;;;;;;;;;5011470;28;20026;-83
2024/01/23 13:53:01;;;;;;;29.55;4.70;;;;;;;;;;5012325;28;20308;-83
2024/01/23 13:55:27;;;;;;;26.80;5.03;;;;;;;;;;5008411;28;20487;-85
2024/01/23 13:57:53;;;;;;;27.75;5.03;;;;;;;;;;5010745;28;20034;-84
2024/01/23 14:00:22;;;;;;;36.38;4.97;;;;;;;;;;5009882;28;20041;-83
2024/01/23 14:02:48;;;;;;;30.90;5.10;;;;;;;;;;5030486;28;20026;-83
2024/01/23 14:05:16;;;;;;;29.30;4.60;;;;;;;;;;5014840;28;20463;-83
2024/01/23 14:07:42;;;;;;;31.58;5.15;;;;;;;;;;5012510;28;20034;-85
2024/01/23 14:10:09;;;;;;;30.25;5.88;;;;;;;;;;5011911;28;20030;-83
2024/01/23 14:12:35;;;;;;;26.35;6.68;;;;;;;;;;5010974;28;20046;-84
2024/01/23 14:15:01;;;;;;;32.15;5.50;;;;;;;;;;5006374;28;20037;-84
2024/01/23 14:17:27;;;;;;;32.15;5.97;;;;;;;;;;5010950;28;20042;-85
2024/01/23 14:19:53;;;;;;;28.40;5.10;;;;;;;;;;5010523;28;20034;-84
2024/01/23 14:22:19;;;;;;;41.90;7.50;;;;;;;;;;5011821;28;20033;-84
2024/01/23 14:24:45;;;;;;;30.60;6.05;;;;;;;;;;5011653;28;20022;-84
2024/01/23 14:27:12;;;;;;;29.08;5.03;;;;;;;;;;4998553;28;20037;-84
2024/01/23 14:29:38;;;;;;;39.47;4.80;;;;;;;;;;5006362;28;20022;-84
2024/01/23 14:32:05;;;;;;;29.65;6.32;;;;;;;;;;5026845;28;20100;-83
2024/01/23 14:34:31;;;;;;;36.35;7.07;;;;;;;;;;5031134;28;20276;-84